createdAt,value
2022-07-27T00:00:46.384Z,149883.44
2022-07-27T00:01:51.292Z,149932.19
2022-07-27T00:02:53.553Z,149898.09
2022-07-27T00:03:55.627Z,149906.59
2022-07-27T00:04:57.654Z,149905.38
2022-07-27T00:05:59.778Z,149900.53
2022-07-27T00:07:01.805Z,149929.75
2022-07-27T00:08:03.800Z,149939.47
2022-07-27T00:09:05.792Z,149971.13
2022-07-27T00:10:07.982Z,149951.63
2022-07-27T00:11:10.742Z,149946.78
2022-07-27T00:12:12.723Z,149939.47
2022-07-27T00:13:16.410Z,149971.13
2022-07-27T00:14:18.381Z,149940.69
2022-07-27T00:15:20.368Z,149971.13
2022-07-27T00:16:22.478Z,149878.59
2022-07-27T00:17:25.166Z,149929.75
2022-07-27T00:18:27.237Z,149932.19
2022-07-27T00:19:29.197Z,149990.69
2022-07-27T00:20:31.652Z,149969.94
2022-07-27T00:21:33.668Z,149971.13
2022-07-27T00:22:36.907Z,149949.22
2022-07-27T00:23:38.979Z,149932.19
2022-07-27T00:24:40.971Z,149929.75
2022-07-27T00:25:42.973Z,149971.13
2022-07-27T00:26:45.014Z,149985.72
2022-07-27T00:27:47.058Z,149961.41
2022-07-27T00:28:49.329Z,149990.69
2022-07-27T00:29:51.339Z,149983.31
2022-07-27T00:30:53.341Z,149978.44
2022-07-27T00:31:55.367Z,149994.34
2022-07-27T00:32:57.533Z,149978.44
2022-07-27T00:34:00.589Z,149982.09
2022-07-27T00:35:02.721Z,149971.13
2022-07-27T00:36:04.971Z,149912.69
2022-07-27T00:37:06.970Z,149902.94
2022-07-27T00:38:08.979Z,149906.59
2022-07-27T00:39:11.191Z,149927.31
2022-07-27T00:40:13.604Z,149939.47
2022-07-27T00:41:15.587Z,149958.97
2022-07-27T00:42:21.156Z,149951.63
2022-07-27T00:43:23.149Z,149937.03
2022-07-27T00:44:28.757Z,149951.63
2022-07-27T00:45:30.825Z,149923.66
2022-07-27T00:48:05.774Z,149930.97
2022-07-27T00:49:07.793Z,149933.41
2022-07-27T00:50:09.947Z,149941.91
2022-07-27T00:51:12.145Z,149949.22
2022-07-27T00:52:14.729Z,149934.63
2022-07-27T00:53:16.912Z,149915.09
2022-07-27T00:54:19.208Z,149924.88
2022-07-27T00:55:21.272Z,149916.31
2022-07-27T00:56:23.228Z,149924.88
2022-07-27T00:57:26.587Z,149900.53
2022-07-27T00:58:29.309Z,149893.22
2022-07-27T00:59:31.783Z,149898.09
2022-07-27T01:00:33.803Z,149873.72
2022-07-27T01:01:36.002Z,149882.25
2022-07-27T01:02:38.558Z,149859.13
2022-07-27T01:03:48.413Z,149878.59
2022-07-27T01:04:53.778Z,149868.84
2022-07-27T01:05:59.198Z,149868.84
2022-07-27T01:07:04.543Z,149857.91
2022-07-27T01:08:07.784Z,149859.13
2022-07-27T01:09:28.431Z,149848.16
2022-07-27T01:10:30.471Z,149851.78
2022-07-27T01:11:32.481Z,149848.16
2022-07-27T01:12:34.502Z,149862.78
2022-07-27T01:13:37.129Z,149881.03
2022-07-27T01:14:39.199Z,149864.00
2022-07-27T01:15:41.757Z,149868.84
2022-07-27T01:16:44.630Z,149856.66
2022-07-27T01:17:46.615Z,149861.56
2022-07-27T01:18:48.590Z,149882.25
2022-07-27T01:19:51.321Z,149842.06
2022-07-27T01:20:53.565Z,149881.03
2022-07-27T01:21:55.521Z,149856.66
2022-07-27T01:22:57.482Z,149888.31
2022-07-27T01:23:59.461Z,149888.31
2022-07-27T01:25:01.527Z,149884.66
2022-07-27T01:26:04.295Z,149878.59
2022-07-27T01:27:06.608Z,149862.78
2022-07-27T01:28:08.576Z,149877.38
2022-07-27T01:29:10.715Z,149874.94
2022-07-27T01:30:27.847Z,149890.78
2022-07-27T01:31:30.676Z,149909.03
2022-07-27T01:32:32.726Z,149862.78
2022-07-27T01:33:34.843Z,149876.16
2022-07-27T01:34:36.835Z,149899.31
2022-07-27T01:35:39.550Z,149882.25
2022-07-27T01:36:41.876Z,149872.50
2022-07-27T01:37:48.242Z,149898.09
2022-07-27T01:38:50.532Z,149868.84
2022-07-27T01:39:52.499Z,149857.91
2022-07-27T01:40:54.898Z,149826.25
2022-07-27T01:41:57.167Z,149797.03
2022-07-27T01:42:59.182Z,149827.47
2022-07-27T01:44:01.166Z,149839.63
2022-07-27T01:45:03.280Z,149844.50
2022-07-27T01:46:05.673Z,149800.69
2022-07-27T01:47:14.646Z,149799.47
2022-07-27T01:48:16.863Z,149805.56
2022-07-27T01:49:18.939Z,149771.41
2022-07-27T01:50:20.934Z,149798.25
2022-07-27T01:51:22.920Z,149798.25
2022-07-27T01:52:24.859Z,149816.50
2022-07-27T01:53:26.863Z,149833.56
2022-07-27T01:54:28.866Z,149821.34
2022-07-27T01:55:38.915Z,149834.78
2022-07-27T01:56:41.253Z,149793.38
2022-07-27T01:57:43.238Z,149779.97
2022-07-27T01:58:45.202Z,149759.25
2022-07-27T01:59:47.181Z,149772.63
2022-07-27T02:00:49.424Z,149759.25
2022-07-27T02:01:51.488Z,149760.47
2022-07-27T02:02:53.585Z,149749.50
2022-07-27T02:03:55.539Z,149740.97
2022-07-27T02:04:57.558Z,149754.34
2022-07-27T02:05:59.738Z,149717.84
2022-07-27T02:07:01.712Z,149720.28
2022-07-27T02:08:04.526Z,149722.72
2022-07-27T02:09:06.617Z,149723.91
2022-07-27T02:10:09.424Z,149723.91
2022-07-27T02:11:30.058Z,149740.97
2022-07-27T02:12:38.353Z,149761.69
2022-07-27T02:13:43.450Z,149771.41
2022-07-27T02:14:45.410Z,149764.13
2022-07-27T02:15:47.386Z,149776.28
2022-07-27T02:16:51.358Z,149788.47
2022-07-27T02:17:54.258Z,149792.19
2022-07-27T02:18:56.629Z,149777.50
2022-07-27T02:19:58.644Z,149788.47
2022-07-27T02:21:00.628Z,149771.41
2022-07-27T02:22:02.582Z,149792.19
2022-07-27T02:23:04.777Z,149807.97
2022-07-27T02:24:06.959Z,149822.56
2022-07-27T02:25:10.005Z,149805.56
2022-07-27T02:26:11.977Z,149807.97
2022-07-27T02:27:13.994Z,149800.69
2022-07-27T02:28:15.979Z,149798.25
2022-07-27T02:29:17.965Z,149810.41
2022-07-27T02:30:20.053Z,149807.97
2022-07-27T02:31:22.062Z,149810.41
2022-07-27T02:32:24.110Z,149782.41
2022-07-27T02:33:26.185Z,149787.28
2022-07-27T02:34:28.155Z,149782.41
2022-07-27T02:35:30.103Z,149776.28
2022-07-27T02:36:32.062Z,149768.97
2022-07-27T02:37:34.082Z,149767.78
2022-07-27T02:38:39.003Z,149756.78
2022-07-27T02:39:41.066Z,149756.78
2022-07-27T02:40:43.072Z,149771.41
2022-07-27T02:41:47.535Z,149778.75
2022-07-27T02:42:49.551Z,149759.25
2022-07-27T02:43:51.538Z,149773.84
2022-07-27T02:44:53.518Z,149792.19
2022-07-27T02:45:55.612Z,149818.91
2022-07-27T02:46:57.633Z,149820.13
2022-07-27T02:47:59.696Z,149834.78
2022-07-27T02:49:01.761Z,149805.56
2022-07-27T02:50:04.001Z,149833.56
2022-07-27T02:51:05.967Z,149844.50
2022-07-27T02:52:07.923Z,149822.56
2022-07-27T02:53:09.958Z,149833.56
2022-07-27T02:54:11.895Z,149810.41
2022-07-27T02:55:13.919Z,149761.69
2022-07-27T02:56:15.963Z,149758.00
2022-07-27T02:57:18.101Z,149781.19
2022-07-27T02:58:21.176Z,149782.41
2022-07-27T02:59:23.495Z,149772.63
2022-07-27T03:00:25.668Z,149733.69
2022-07-27T03:01:27.740Z,149747.06
2022-07-27T03:02:29.747Z,149737.34
2022-07-27T03:03:35.930Z,149749.50
2022-07-27T03:04:39.310Z,149686.19
2022-07-27T03:05:41.367Z,149665.53
2022-07-27T03:06:43.855Z,149730.03
2022-07-27T03:07:45.914Z,149727.63
2022-07-27T03:08:47.885Z,149726.41
2022-07-27T03:09:52.582Z,149705.69
2022-07-27T03:10:54.794Z,149708.13
2022-07-27T03:11:56.793Z,149667.97
2022-07-27T03:12:59.045Z,149692.28
2022-07-27T03:14:01.025Z,149683.78
2022-07-27T03:15:03.360Z,149692.28
2022-07-27T03:16:05.444Z,149622.91
2022-07-27T03:17:07.493Z,149674.03
2022-07-27T03:18:09.506Z,149647.28
2022-07-27T03:19:12.594Z,149664.31
2022-07-27T03:20:14.834Z,149661.91
2022-07-27T03:21:16.899Z,149661.91
2022-07-27T03:22:18.845Z,149686.19
2022-07-27T03:23:20.871Z,149676.47
2022-07-27T03:24:22.838Z,149669.19
2022-07-27T03:25:25.881Z,149676.47
2022-07-27T03:26:30.531Z,149643.63
2022-07-27T03:27:32.513Z,149627.81
2022-07-27T03:28:34.473Z,149637.53
2022-07-27T03:29:36.487Z,149614.41
2022-07-27T03:30:38.578Z,149565.75
2022-07-27T03:31:40.639Z,149581.56
2022-07-27T03:32:43.311Z,149610.78
2022-07-27T03:33:45.351Z,149598.63
2022-07-27T03:34:47.381Z,149627.81
2022-07-27T03:35:49.357Z,149610.78
2022-07-27T03:36:51.350Z,149588.84
2022-07-27T03:37:53.336Z,149625.34
2022-07-27T03:38:55.290Z,149616.84
2022-07-27T03:39:57.244Z,149585.22
2022-07-27T03:40:59.922Z,149599.84
2022-07-27T03:42:02.283Z,149601.03
2022-07-27T03:43:04.374Z,149560.84
2022-07-27T03:44:06.353Z,149615.63
2022-07-27T03:45:08.652Z,149597.41
2022-07-27T03:46:12.668Z,149604.69
2022-07-27T03:47:14.680Z,149611.97
2022-07-27T03:48:16.683Z,149613.19
2022-07-27T03:49:18.917Z,149614.41
2022-07-27T03:50:21.121Z,149627.81
2022-07-27T03:51:23.349Z,149602.25
2022-07-27T03:52:25.306Z,149579.13
2022-07-27T03:53:27.367Z,149593.72
2022-07-27T03:54:29.392Z,149622.91
2022-07-27T03:55:31.404Z,149620.50
2022-07-27T03:56:33.442Z,149622.91
2022-07-27T03:57:35.772Z,149630.25
2022-07-27T03:58:38.031Z,149592.50
2022-07-27T03:59:40.560Z,149591.28
2022-07-27T04:00:43.649Z,149553.53
2022-07-27T04:01:46.161Z,149526.75
2022-07-27T04:02:48.276Z,149558.38
2022-07-27T04:03:50.321Z,149570.63
2022-07-27T04:04:52.311Z,149610.78
2022-07-27T04:05:54.333Z,149593.72
2022-07-27T04:06:56.415Z,149598.63
2022-07-27T04:07:58.446Z,149584.00
2022-07-27T04:09:08.297Z,149615.63
2022-07-27T04:10:11.056Z,149620.50
2022-07-27T04:11:13.363Z,149618.06
2022-07-27T04:12:17.381Z,149622.91
2022-07-27T04:13:22.102Z,149605.91
2022-07-27T04:14:24.070Z,149624.13
2022-07-27T04:15:26.309Z,149626.56
2022-07-27T04:16:30.757Z,149559.59
2022-07-27T04:17:55.127Z,149586.41
2022-07-27T04:18:58.142Z,149601.03
2022-07-27T04:20:00.089Z,149564.56
2022-07-27T04:21:06.111Z,149574.28
2022-07-27T04:22:08.093Z,149564.56
2022-07-27T04:23:10.066Z,149586.41
2022-07-27T04:24:12.129Z,149584.00
2022-07-27T04:25:14.345Z,149602.25
2022-07-27T04:26:16.295Z,149591.28
2022-07-27T04:27:18.294Z,149591.28
2022-07-27T04:28:20.281Z,149616.84
2022-07-27T04:29:22.709Z,149581.56
2022-07-27T04:30:24.966Z,149592.50
2022-07-27T04:31:27.022Z,149584.00
2022-07-27T04:32:29.142Z,149588.84
2022-07-27T04:33:31.639Z,149502.47
2022-07-27T04:34:33.626Z,149562.13
2022-07-27T04:35:35.654Z,149545.03
2022-07-27T04:36:37.980Z,149592.50
2022-07-27T04:37:40.043Z,149598.63
2022-07-27T04:38:59.758Z,149622.91
2022-07-27T04:40:01.975Z,149630.25
2022-07-27T04:41:03.937Z,149574.28
2022-07-27T04:42:06.023Z,149604.69
2022-07-27T04:43:07.990Z,149605.91
2022-07-27T04:44:09.974Z,149613.19
2022-07-27T04:45:11.945Z,149610.78
2022-07-27T04:46:15.729Z,149649.69
2022-07-27T04:47:17.782Z,149650.91
2022-07-27T04:48:19.818Z,149669.19
2022-07-27T04:49:21.845Z,149671.63
2022-07-27T04:50:23.944Z,149664.31
2022-07-27T04:51:27.373Z,149665.53
2022-07-27T04:52:30.939Z,149663.09
2022-07-27T04:53:33.144Z,149644.84
2022-07-27T04:54:35.118Z,149666.75
2022-07-27T04:55:37.674Z,149676.47
2022-07-27T04:56:39.637Z,149664.31
2022-07-27T04:57:42.035Z,149693.53
2022-07-27T04:58:44.017Z,149688.63
2022-07-27T04:59:45.944Z,149711.78
2022-07-27T05:00:48.296Z,149688.63
2022-07-27T05:01:50.386Z,149686.19
2022-07-27T05:02:52.379Z,149686.19
2022-07-27T05:03:54.445Z,149661.91
2022-07-27T05:04:56.500Z,149661.91
2022-07-27T05:05:58.482Z,149710.56
2022-07-27T05:07:00.537Z,149709.34
2022-07-27T05:08:02.989Z,149694.75
2022-07-27T05:09:05.096Z,149686.19
2022-07-27T05:10:07.204Z,149642.41
2022-07-27T05:11:09.250Z,149615.63
2022-07-27T05:12:11.293Z,149638.75
2022-07-27T05:13:13.474Z,149630.25
2022-07-27T05:14:15.432Z,149670.41
2022-07-27T05:15:21.719Z,149693.53
2022-07-27T05:16:28.311Z,149674.03
2022-07-27T05:17:31.018Z,149727.63
2022-07-27T05:18:33.050Z,149781.19
2022-07-27T05:19:40.481Z,149812.84
2022-07-27T05:20:42.969Z,149823.78
2022-07-27T05:21:44.968Z,149793.38
2022-07-27T05:22:46.942Z,149728.84
2022-07-27T05:23:48.996Z,149739.78
2022-07-27T05:24:51.009Z,149778.75
2022-07-27T05:25:52.982Z,149761.69
2022-07-27T05:26:54.932Z,149788.47
2022-07-27T05:27:56.921Z,149811.63
2022-07-27T05:28:58.871Z,149834.78
2022-07-27T05:30:00.920Z,149820.13
2022-07-27T05:31:02.871Z,149889.53
2022-07-27T05:32:05.164Z,149872.50
2022-07-27T05:33:07.278Z,149910.25
2022-07-27T05:34:09.225Z,149932.19
2022-07-27T05:35:11.293Z,149950.44
2022-07-27T05:36:13.305Z,149984.53
2022-07-27T05:37:15.355Z,149985.72
2022-07-27T05:38:17.439Z,149973.56
2022-07-27T05:39:19.752Z,149900.53
2022-07-27T05:40:22.064Z,149853.00
2022-07-27T05:41:24.803Z,149948.00
2022-07-27T05:42:26.819Z,149878.59
2022-07-27T05:43:28.755Z,149867.66
2022-07-27T05:44:30.860Z,149935.81
2022-07-27T05:45:32.875Z,149956.56
2022-07-27T05:46:36.494Z,149917.53
2022-07-27T05:47:39.775Z,149781.19
2022-07-27T05:48:41.813Z,149850.56
2022-07-27T05:49:43.823Z,149855.44
2022-07-27T05:50:45.792Z,149883.44
2022-07-27T05:51:47.761Z,149817.69
2022-07-27T05:52:49.772Z,149818.91
2022-07-27T05:53:52.018Z,149902.94
2022-07-27T05:54:54.109Z,149961.41
2022-07-27T05:55:58.096Z,149930.97
2022-07-27T05:57:01.526Z,150010.16
2022-07-27T05:58:03.545Z,150084.44
2022-07-27T05:59:07.457Z,150118.56
2022-07-27T06:00:10.574Z,149963.84
2022-07-27T06:01:15.660Z,149976.00
2022-07-27T06:02:17.677Z,150019.88
2022-07-27T06:03:19.727Z,149998.00
2022-07-27T06:04:21.804Z,149990.69
2022-07-27T06:05:23.871Z,149973.56
2022-07-27T06:06:44.685Z,149990.69
2022-07-27T06:08:05.399Z,150021.09
2022-07-27T06:09:07.375Z,150050.34
2022-07-27T06:10:09.483Z,150013.81
2022-07-27T06:11:11.514Z,150119.81
2022-07-27T06:12:13.540Z,150212.44
2022-07-27T06:13:15.507Z,150197.81
2022-07-27T06:14:17.511Z,150268.50
2022-07-27T06:15:19.728Z,150458.72
2022-07-27T06:16:22.348Z,150464.81
2022-07-27T06:17:24.370Z,150464.81
2022-07-27T06:18:26.435Z,150642.88
2022-07-27T06:19:36.323Z,150771.03
2022-07-27T06:20:40.318Z,150824.75
2022-07-27T06:21:42.293Z,150927.31
2022-07-27T06:22:45.447Z,150966.34
2022-07-27T06:23:48.408Z,150937.06
2022-07-27T06:25:52.097Z,150995.66
2022-07-27T06:26:54.100Z,151076.25
2022-07-27T06:27:56.147Z,150976.16
2022-07-27T06:29:00.924Z,151142.25
2022-07-27T06:30:03.605Z,151001.75
2022-07-27T06:31:06.785Z,150990.78
2022-07-27T06:32:08.859Z,150962.69
2022-07-27T06:33:12.537Z,150815.00
2022-07-27T06:34:14.966Z,150822.31
2022-07-27T06:35:17.001Z,150856.47
2022-07-27T06:36:21.266Z,150653.91
2022-07-27T06:37:23.239Z,150633.16
2022-07-27T06:38:25.383Z,150480.63
2022-07-27T06:39:27.447Z,150600.22
2022-07-27T06:40:30.285Z,150492.84
2022-07-27T06:41:34.171Z,150585.59
2022-07-27T06:42:36.178Z,150723.44
2022-07-27T06:43:38.194Z,150791.78
2022-07-27T06:44:40.771Z,150857.69
2022-07-27T06:45:42.722Z,150858.91
2022-07-27T06:46:44.788Z,150678.25
2022-07-27T06:47:49.376Z,150600.22
2022-07-27T06:48:53.223Z,150575.81
2022-07-27T06:49:56.184Z,150758.84
2022-07-27T06:50:58.337Z,150667.28
2022-07-27T06:52:00.488Z,150810.13
2022-07-27T06:53:02.623Z,150791.78
2022-07-27T06:54:05.184Z,150851.59
2022-07-27T06:55:07.569Z,150888.22
2022-07-27T06:56:09.690Z,150751.53
2022-07-27T06:57:11.790Z,150673.38
2022-07-27T06:58:14.052Z,150790.56
2022-07-27T06:59:16.224Z,150902.84
2022-07-27T07:00:18.538Z,150944.41
2022-07-27T07:01:20.767Z,150984.69
2022-07-27T07:02:23.026Z,151040.84
2022-07-27T07:03:25.192Z,151076.25
2022-07-27T07:04:27.374Z,151139.81
2022-07-27T07:05:29.993Z,151110.50
2022-07-27T07:06:32.390Z,151191.06
2022-07-27T07:07:34.772Z,151142.25
2022-07-27T07:08:36.919Z,151254.63
2022-07-27T07:09:38.973Z,151149.56
2022-07-27T07:10:42.056Z,151105.56
2022-07-27T07:11:44.197Z,151120.25
2022-07-27T07:12:46.511Z,151147.13
2022-07-27T07:13:48.513Z,151171.50
2022-07-27T07:14:51.253Z,151094.59
2022-07-27T07:15:53.524Z,151088.50
2022-07-27T07:16:55.710Z,151100.69
2022-07-27T07:17:57.865Z,151100.69
2022-07-27T07:19:00.040Z,151253.41
2022-07-27T07:20:02.215Z,151049.38
2022-07-27T07:21:04.963Z,150913.84
2022-07-27T07:22:07.223Z,150973.66
2022-07-27T07:23:10.292Z,151011.53
2022-07-27T07:24:13.927Z,151178.88
2022-07-27T07:25:16.224Z,151137.31
2022-07-27T07:26:18.331Z,151310.84
2022-07-27T07:27:23.384Z,151336.50
2022-07-27T07:28:25.452Z,151521.03
2022-07-27T07:29:27.852Z,151572.44
2022-07-27T07:30:29.973Z,151763.16
2022-07-27T07:31:32.757Z,152025.00
2022-07-27T07:32:34.884Z,152055.59
2022-07-27T07:33:36.918Z,152269.81
2022-07-27T07:34:38.951Z,151993.16
2022-07-27T07:36:13.174Z,151895.28
2022-07-27T07:37:03.939Z,152213.50
2022-07-27T07:38:06.001Z,152339.63
2022-07-27T07:39:08.087Z,152508.66
2022-07-27T07:40:41.218Z,152672.81
2022-07-27T07:41:36.580Z,152823.59
2022-07-27T07:43:08.433Z,152944.91
2022-07-27T07:44:10.526Z,152942.47
2022-07-27T07:45:12.680Z,152800.28
2022-07-27T07:46:14.888Z,152943.69
2022-07-27T07:47:17.275Z,152687.50
2022-07-27T07:48:20.800Z,152623.84
2022-07-27T07:49:39.049Z,152844.44
2022-07-27T07:50:42.193Z,152268.59
2022-07-27T07:51:44.366Z,152392.31
2022-07-27T07:52:47.825Z,152228.22
2022-07-27T07:53:49.957Z,152108.22
2022-07-27T07:54:52.013Z,152321.25
2022-07-27T07:55:56.671Z,152549.06
2022-07-27T07:56:58.839Z,152317.59
2022-07-27T07:58:01.882Z,152115.56
2022-07-27T07:59:05.072Z,152025.00
2022-07-27T08:00:09.267Z,151989.47
2022-07-27T08:01:14.564Z,151941.78
2022-07-27T08:02:16.877Z,151973.59
2022-07-27T08:03:19.344Z,151516.16
2022-07-27T08:04:21.567Z,151584.63
2022-07-27T08:05:24.748Z,151418.38
2022-07-27T08:06:26.871Z,151549.16
2022-07-27T08:07:29.134Z,151588.28
2022-07-27T08:08:31.292Z,151523.47
2022-07-27T08:09:33.418Z,151466.03
2022-07-27T08:10:38.518Z,151643.31
2022-07-27T08:11:40.716Z,151611.53
2022-07-27T08:12:45.122Z,151672.66
2022-07-27T08:13:47.373Z,151565.00
2022-07-27T08:14:49.576Z,151457.47
2022-07-27T08:15:52.452Z,151303.47
2022-07-27T08:16:54.551Z,151242.38
2022-07-27T08:17:56.606Z,151238.72
2022-07-27T08:18:59.409Z,151137.31
2022-07-27T08:20:01.810Z,150998.09
2022-07-27T08:21:04.289Z,150983.47
2022-07-27T08:22:06.507Z,150966.34
2022-07-27T08:23:08.683Z,150928.53
2022-07-27T08:24:11.228Z,150932.19
2022-07-27T08:25:13.690Z,150968.78
2022-07-27T08:26:15.847Z,150954.16
2022-07-27T08:27:18.261Z,150924.88
2022-07-27T08:28:20.572Z,151038.38
2022-07-27T08:29:23.442Z,150951.72
2022-07-27T08:30:38.264Z,151034.72
2022-07-27T08:31:52.757Z,150985.91
2022-07-27T08:33:01.205Z,151108.06
2022-07-27T08:34:03.713Z,151286.41
2022-07-27T08:35:05.991Z,151334.00
2022-07-27T08:36:08.216Z,151296.16
2022-07-27T08:37:15.214Z,151265.59
2022-07-27T08:38:17.957Z,151208.19
2022-07-27T08:40:05.730Z,151216.72
2022-07-27T08:40:45.147Z,151247.28
2022-07-27T08:41:48.074Z,151271.75
2022-07-27T08:42:50.295Z,151220.38
2022-07-27T08:43:54.573Z,151283.94
2022-07-27T08:44:57.856Z,151474.59
2022-07-27T08:46:01.017Z,151643.31
2022-07-27T08:47:03.703Z,151840.22
2022-07-27T08:48:06.146Z,152115.56
2022-07-27T08:49:08.909Z,152202.50
2022-07-27T08:50:24.869Z,152348.19
2022-07-27T08:51:27.377Z,152571.13
2022-07-27T08:52:29.777Z,152556.38
2022-07-27T08:53:35.733Z,152860.38
2022-07-27T08:54:54.750Z,152703.44
2022-07-27T08:55:57.678Z,152720.63
2022-07-27T08:56:59.770Z,152861.59
2022-07-27T08:58:03.672Z,152720.63
2022-07-27T08:59:06.024Z,152392.31
2022-07-27T09:00:08.743Z,152249.00
2022-07-27T09:01:10.774Z,152546.59
2022-07-27T09:02:15.758Z,152318.81
2022-07-27T09:03:20.953Z,152193.94
2022-07-27T09:04:23.736Z,152502.53
2022-07-27T09:05:25.927Z,152567.44
2022-07-27T09:06:45.788Z,152312.69
2022-07-27T09:07:55.002Z,152078.84
2022-07-27T09:09:00.243Z,152431.47
2022-07-27T09:10:02.879Z,152555.16
2022-07-27T09:11:13.222Z,152610.34
2022-07-27T09:12:15.263Z,152542.94
2022-07-27T09:13:18.671Z,152580.94
2022-07-27T09:14:29.966Z,152550.28
2022-07-27T09:15:34.617Z,152817.41
2022-07-27T09:17:03.403Z,153033.22
2022-07-27T09:17:59.445Z,153144.81
2022-07-27T09:19:03.558Z,153224.59
2022-07-27T09:20:17.400Z,153316.59
2022-07-27T09:21:22.159Z,153273.63
2022-07-27T09:22:40.185Z,153068.78
2022-07-27T09:23:44.068Z,153133.81
2022-07-27T09:25:01.616Z,153260.16
2022-07-27T09:26:36.049Z,153331.28
2022-07-27T09:27:38.564Z,153645.44
2022-07-27T09:28:40.692Z,153515.38
2022-07-27T09:29:42.797Z,153755.97
2022-07-27T09:30:45.341Z,153957.41
2022-07-27T09:31:49.132Z,153953.72
2022-07-27T09:32:55.720Z,153891.06
2022-07-27T09:33:59.168Z,153962.28
2022-07-27T09:35:22.618Z,153538.66
2022-07-27T09:36:25.673Z,153623.41
2022-07-27T09:37:28.076Z,153186.53
2022-07-27T09:38:30.118Z,153018.50
2022-07-27T09:39:32.285Z,152987.91
2022-07-27T09:40:36.133Z,153317.81
2022-07-27T09:41:41.463Z,153011.16
2022-07-27T09:44:30.656Z,152845.66
2022-07-27T09:45:38.117Z,152382.47
2022-07-27T09:46:46.599Z,152186.56
2022-07-27T09:47:48.916Z,152135.16
2022-07-27T09:48:51.065Z,151989.47
2022-07-27T09:49:58.110Z,152042.16
2022-07-27T09:51:05.449Z,151932.03
2022-07-27T09:52:25.962Z,152056.81
2022-07-27T09:53:42.519Z,151748.50
2022-07-27T09:54:47.470Z,151447.72
2022-07-27T09:56:00.066Z,151598.06
2022-07-27T09:57:03.038Z,151545.50
2022-07-27T09:58:05.121Z,151676.34
2022-07-27T09:59:07.406Z,151670.22
2022-07-27T10:00:13.840Z,151418.38
2022-07-27T10:01:17.421Z,151296.16
2022-07-27T10:02:19.707Z,151285.16
2022-07-27T10:03:21.782Z,151310.84
2022-07-27T10:04:24.199Z,151032.28
2022-07-27T10:05:26.475Z,151037.16
2022-07-27T10:06:29.445Z,151051.81
2022-07-27T10:07:32.758Z,151029.84
2022-07-27T10:08:36.093Z,151117.81
2022-07-27T10:09:38.207Z,151202.03
2022-07-27T10:10:40.389Z,151247.28
2022-07-27T10:11:42.540Z,151193.50
2022-07-27T10:12:46.815Z,151169.06
2022-07-27T10:13:52.145Z,151323.03
2022-07-27T10:14:54.138Z,151545.50
2022-07-27T10:15:56.438Z,151790.06
2022-07-27T10:16:58.553Z,152105.78
2022-07-27T10:18:07.303Z,152164.56
2022-07-27T10:19:14.017Z,152432.69
2022-07-27T10:20:18.288Z,152551.50
2022-07-27T10:21:20.726Z,152649.53
2022-07-27T10:22:41.242Z,152615.22
2022-07-27T10:23:53.810Z,152865.28
2022-07-27T10:25:00.485Z,152443.75
2022-07-27T10:26:15.258Z,152286.94
2022-07-27T10:27:17.349Z,152215.94
2022-07-27T10:28:19.438Z,152073.97
2022-07-27T10:29:23.424Z,152228.22
2022-07-27T10:30:28.086Z,152039.72
2022-07-27T10:31:33.764Z,152070.28
2022-07-27T10:32:37.182Z,152004.19
2022-07-27T10:33:43.387Z,151825.53
2022-07-27T10:34:45.514Z,151905.09
2022-07-27T10:35:47.718Z,151783.97
2022-07-27T10:36:51.170Z,151983.38
2022-07-27T10:38:10.061Z,152039.72
2022-07-27T10:39:25.093Z,152252.66
2022-07-27T10:40:36.148Z,152300.47
2022-07-27T10:41:40.207Z,152357.97
2022-07-27T10:42:43.850Z,152360.47
2022-07-27T10:43:46.284Z,152436.38
2022-07-27T10:44:52.612Z,152387.38
2022-07-27T10:46:02.737Z,152179.25
2022-07-27T10:47:08.337Z,152361.69
2022-07-27T10:48:30.675Z,152366.59
2022-07-27T10:49:34.695Z,152593.22
2022-07-27T10:50:47.537Z,152502.53
2022-07-27T10:51:50.346Z,152789.28
2022-07-27T10:52:52.632Z,153034.47
2022-07-27T10:54:12.012Z,152615.22
2022-07-27T10:55:29.509Z,152520.88
2022-07-27T10:56:51.361Z,152164.56
2022-07-27T10:57:54.911Z,152077.63
2022-07-27T10:58:56.881Z,151913.66
2022-07-27T11:00:08.627Z,151878.19
2022-07-27T11:01:14.688Z,152025.00
2022-07-27T11:02:18.730Z,151770.53
2022-07-27T11:03:23.611Z,151854.88
2022-07-27T11:04:25.875Z,151819.41
2022-07-27T11:05:59.659Z,151771.75
2022-07-27T11:07:23.507Z,151839.00
2022-07-27T11:08:36.836Z,151891.63
2022-07-27T11:11:04.486Z,152245.31
2022-07-27T11:12:07.410Z,152174.34
2022-07-27T11:13:11.171Z,152335.97
2022-07-27T11:14:13.375Z,152377.59
2022-07-27T11:15:15.653Z,152315.16
2022-07-27T11:16:24.556Z,152444.97
2022-07-27T11:18:55.014Z,152779.44
2022-07-27T11:19:58.450Z,152887.34
2022-07-27T11:21:25.957Z,152672.81
2022-07-27T11:22:39.621Z,152723.13
2022-07-27T11:23:56.745Z,152605.44
2022-07-27T11:24:59.480Z,152005.41
2022-07-27T11:26:01.887Z,152262.50
2022-07-27T11:27:17.031Z,151902.66
2022-07-27T11:28:27.643Z,151786.41
2022-07-27T11:29:33.231Z,152193.94
2022-07-27T11:30:42.043Z,152433.91
2022-07-27T11:31:55.227Z,152609.13
2022-07-27T11:33:03.289Z,152288.16
2022-07-27T11:34:05.449Z,152467.03
2022-07-27T11:35:19.556Z,152316.38
2022-07-27T11:36:22.279Z,152167.03
2022-07-27T11:37:24.260Z,152054.38
2022-07-27T11:38:26.254Z,152032.38
2022-07-27T11:40:56.958Z,152066.63
2022-07-27T11:42:08.511Z,152227.00
2022-07-27T11:43:14.579Z,152629.97
2022-07-27T11:44:17.690Z,152843.22
2022-07-27T11:45:29.609Z,152990.34
2022-07-27T11:46:33.914Z,153021.00
2022-07-27T11:47:37.018Z,153238.06
2022-07-27T11:49:05.618Z,153306.75
2022-07-27T11:50:09.299Z,153333.72
2022-07-27T11:51:11.725Z,153555.88
2022-07-27T11:52:16.469Z,153546.03
2022-07-27T11:53:20.631Z,153471.19
2022-07-27T11:54:23.241Z,153476.09
2022-07-27T11:55:25.244Z,153401.22
2022-07-27T11:56:28.493Z,153299.38
2022-07-27T11:57:32.020Z,153147.28
2022-07-27T11:58:35.081Z,152904.47
2022-07-27T11:59:38.791Z,153212.25
2022-07-27T12:00:41.432Z,153473.66
2022-07-27T12:01:44.924Z,153493.28
2022-07-27T12:02:51.013Z,153596.41
2022-07-27T12:04:25.802Z,153741.22
2022-07-27T12:05:28.124Z,153643.00
2022-07-27T12:06:32.581Z,153640.56
2022-07-27T12:07:36.882Z,153758.44
2022-07-27T12:08:38.937Z,153477.31
2022-07-27T12:09:49.779Z,153127.69
2022-07-27T12:10:58.823Z,153144.81
2022-07-27T12:12:11.362Z,153245.41
2022-07-27T12:13:18.607Z,153098.25
2022-07-27T12:14:36.890Z,153011.16
2022-07-27T12:15:46.892Z,152992.78
2022-07-27T12:16:49.209Z,152821.13
2022-07-27T12:18:00.117Z,152906.94
2022-07-27T12:19:02.243Z,152922.88
2022-07-27T12:20:06.117Z,153044.25
2022-07-27T12:21:18.974Z,153041.81